Time;durP1;ratioP1;P1;durP2;ratioP2;P2;SDS_P1;SDS_P2;PMS_P1;PMS_P2;Temp;Humidity;BMP_temperature;BMP_pressure;BME280_temperature;BME280_humidity;BME280_pressure;Samples;Min_cycle;Max_cycle;Signal;HPM_P1;HPM_P2
2022/05/18 00:03:34;;;;;;;4.27;3.83;;;19.90;99.90;;;;;;10355103;28;20236;-69
2022/05/18 00:08:38;;;;;;;5.63;3.53;;;19.90;99.90;;;;;;10360607;28;20247;-71
2022/05/18 00:13:41;;;;;;;6.93;3.93;;;19.90;99.90;;;;;;10354772;28;20229;-71
2022/05/18 00:18:42;;;;;;;6.30;4.10;;;19.90;99.90;;;;;;10353802;28;20301;-72
2022/05/18 00:23:46;;;;;;;7.73;3.60;;;19.90;99.90;;;;;;10349372;28;20316;-70
2022/05/18 00:28:47;;;;;;;4.47;3.30;;;19.90;99.90;;;;;;10356090;28;20266;-71
2022/05/18 00:33:48;;;;;;;3.63;3.17;;;19.90;99.90;;;;;;10360440;28;20364;-72
2022/05/18 00:38:49;;;;;;;4.17;3.30;;;19.70;99.90;;;;;;10351930;28;20284;-70
2022/05/18 00:43:51;;;;;;;7.33;3.73;;;19.50;99.90;;;;;;10359940;28;20284;-72
2022/05/18 00:48:53;;;;;;;5.20;3.67;;;19.30;99.90;;;;;;10359435;28;20268;-70
2022/05/18 00:54:02;;;;;;;6.23;3.83;;;19.10;99.90;;;;;;10365220;28;20235;-72
2022/05/18 00:59:11;;;;;;;3.93;3.27;;;18.90;99.90;;;;;;10368590;28;20236;-70
2022/05/18 01:04:15;;;;;;;6.00;3.73;;;18.70;99.90;;;;;;10343742;28;20319;-71
2022/05/18 01:09:39;;;;;;;5.13;4.07;;;18.60;99.90;;;;;;10358950;28;20301;-70
2022/05/18 01:15:05;;;;;;;4.53;3.43;;;18.40;99.90;;;;;;10351604;28;20522;-69
2022/05/18 01:20:16;;;;;;;4.67;3.70;;;18.20;99.90;;;;;;10358329;28;20216;-70
2022/05/18 01:25:34;;;;;;;4.47;3.70;;;18.20;99.90;;;;;;10358649;28;20304;-70
2022/05/18 01:30:42;;;;;;;4.47;3.47;;;18.10;99.90;;;;;;10353260;28;20217;-71
2022/05/18 01:35:46;;;;;;;7.00;4.00;;;18.00;99.90;;;;;;10333726;28;20294;-70
2022/05/18 01:41:08;;;;;;;7.90;3.90;;;18.00;99.90;;;;;;10333089;28;20223;-70
2022/05/18 01:46:12;;;;;;;5.63;3.83;;;17.80;99.90;;;;;;10362915;28;20229;-71
2022/05/18 01:51:38;;;;;;;4.20;3.80;;;17.70;99.90;;;;;;10357907;28;20223;-71
2022/05/18 01:56:38;;;;;;;6.50;4.23;;;17.60;99.90;;;;;;10332139;28;20219;-70
2022/05/18 02:01:39;;;;;;;5.67;3.63;;;17.60;99.90;;;;;;10353843;28;20247;-70
2022/05/18 02:06:40;;;;;;;4.20;3.67;;;17.50;99.90;;;;;;10358405;28;20216;-70
2022/05/18 02:11:41;;;;;;;4.97;4.27;;;17.40;99.90;;;;;;10350788;28;20362;-70
2022/05/18 02:16:42;;;;;;;7.03;4.57;;;17.40;99.90;;;;;;10358354;28;20848;-70
2022/05/18 02:21:43;;;;;;;6.13;4.10;;;17.30;99.90;;;;;;10354451;28;20227;-70
2022/05/18 02:26:43;;;;;;;5.83;4.13;;;17.30;99.90;;;;;;10352385;28;20244;-70
2022/05/18 02:31:44;;;;;;;6.00;4.07;;;17.30;99.90;;;;;;10371908;28;20272;-71
2022/05/18 02:36:45;;;;;;;8.77;5.30;;;17.20;99.90;;;;;;10356823;28;20449;-70
2022/05/18 02:41:46;;;;;;;8.83;5.60;;;17.20;99.90;;;;;;10356524;28;20314;-70
2022/05/18 02:46:47;;;;;;;8.43;5.70;;;17.20;99.90;;;;;;10366245;28;20261;-71
2022/05/18 02:51:48;;;;;;;11.53;6.10;;;17.10;99.90;;;;;;10354222;28;20240;-71
2022/05/18 02:56:48;;;;;;;12.83;6.03;;;17.10;99.90;;;;;;10345267;28;20232;-70
2022/05/18 03:01:49;;;;;;;11.90;5.97;;;17.10;99.90;;;;;;10367429;28;20311;-70
2022/05/18 03:06:50;;;;;;;9.97;5.73;;;17.10;99.90;;;;;;10339213;28;20223;-70
2022/05/18 03:11:51;;;;;;;9.57;5.30;;;17.10;99.90;;;;;;10355194;28;20216;-70
2022/05/18 03:16:52;;;;;;;12.97;6.63;;;17.20;99.90;;;;;;10337160;28;20224;-70
2022/05/18 03:27:12;;;;;;;8.30;5.43;;;17.20;99.90;;;;;;10357416;28;20217;-71
2022/05/18 03:32:13;;;;;;;8.27;5.10;;;17.20;99.90;;;;;;10363012;28;20617;-70
2022/05/18 03:37:13;;;;;;;8.63;4.40;;;17.10;99.90;;;;;;10355653;28;20244;-69
2022/05/18 03:42:14;;;;;;;7.53;4.70;;;17.10;99.90;;;;;;10346167;28;20915;-70
2022/05/18 03:47:14;;;;;;;7.53;4.67;;;17.00;99.90;;;;;;10354769;28;20232;-70
2022/05/18 03:52:15;;;;;;;6.57;5.00;;;17.00;99.90;;;;;;10367439;28;20257;-70
2022/05/18 03:57:16;;;;;;;7.07;4.70;;;16.90;99.90;;;;;;10355224;28;20275;-69
2022/05/18 04:02:16;;;;;;;8.93;5.47;;;16.90;99.90;;;;;;10348888;28;20228;-72
2022/05/18 04:07:17;;;;;;;9.40;5.20;;;17.00;99.90;;;;;;10369102;28;20218;-70
2022/05/18 04:12:17;;;;;;;10.93;5.53;;;17.00;99.90;;;;;;10357900;28;20267;-70
2022/05/18 04:17:18;;;;;;;7.47;5.00;;;17.00;99.90;;;;;;10346519;28;20252;-70
2022/05/18 04:22:19;;;;;;;10.57;5.97;;;17.00;99.90;;;;;;10359947;28;20317;-70
2022/05/18 04:27:20;;;;;;;11.13;5.87;;;17.10;99.90;;;;;;10344296;28;20413;-69
2022/05/18 04:32:24;;;;;;;5.87;4.90;;;17.10;99.90;;;;;;10349636;28;20643;-70
2022/05/18 04:37:25;;;;;;;7.80;4.80;;;17.20;99.90;;;;;;10353662;28;20236;-70
2022/05/18 04:42:25;;;;;;;8.83;5.50;;;17.30;99.90;;;;;;10354306;28;20236;-70
2022/05/18 04:47:26;;;;;;;9.43;5.30;;;17.50;99.90;;;;;;10352103;28;20220;-71
2022/05/18 04:52:28;;;;;;;8.73;4.67;;;17.90;99.90;;;;;;10336169;28;20236;-69
2022/05/18 04:57:29;;;;;;;9.30;5.50;;;18.50;99.90;;;;;;10346953;28;20236;-70
2022/05/18 05:02:33;;;;;;;8.43;5.00;;;20.20;99.90;;;;;;10348297;28;20817;-70
2022/05/18 05:07:33;;;;;;;9.43;4.70;;;20.90;99.90;;;;;;10347198;28;20225;-71
2022/05/18 05:12:34;;;;;;;7.33;4.60;;;21.70;99.90;;;;;;10358516;28;20229;-70
2022/05/18 05:17:38;;;;;;;8.40;5.00;;;21.70;99.90;;;;;;10358145;28;20217;-69
2022/05/18 05:22:38;;;;;;;13.50;5.93;;;21.50;99.90;;;;;;10365805;28;20364;-70
2022/05/18 05:27:40;;;;;;;7.93;5.13;;;21.20;99.90;;;;;;10356007;28;20760;-69
2022/05/18 05:32:41;;;;;;;10.67;5.50;;;21.00;99.90;;;;;;10334633;28;20489;-69
2022/05/18 05:37:41;;;;;;;11.03;5.07;;;21.10;99.90;;;;;;10352610;28;20232;-69
2022/05/18 05:42:42;;;;;;;10.37;4.97;;;24.00;99.90;;;;;;10354556;28;20700;-70
2022/05/18 05:47:43;;;;;;;8.30;4.37;;;27.50;95.00;;;;;;10362630;28;20217;-70
2022/05/18 05:52:43;;;;;;;9.53;3.67;;;29.80;78.40;;;;;;10333755;28;20234;-69
2022/05/18 05:57:47;;;;;;;7.60;4.20;;;31.70;65.10;;;;;;10337071;28;20241;-69
2022/05/18 06:02:47;;;;;;;17.60;5.30;;;33.20;56.60;;;;;;10319212;28;20226;-71
2022/05/18 06:07:48;;;;;;;9.00;4.47;;;34.20;51.40;;;;;;10340681;28;20229;-71
2022/05/18 06:12:50;;;;;;;21.70;4.07;;;34.90;50.10;;;;;;10355165;28;20359;-71
2022/05/18 06:17:50;;;;;;;8.83;4.10;;;35.90;46.30;;;;;;10361066;28;20696;-70
2022/05/18 06:22:51;;;;;;;9.77;3.80;;;36.80;45.50;;;;;;10348640;28;20355;-70
2022/05/18 06:27:51;;;;;;;13.00;4.00;;;37.50;43.40;;;;;;10348283;28;20630;-74
2022/05/18 06:32:53;;;;;;;8.90;3.40;;;37.40;40.60;;;;;;10364966;28;20224;-71
2022/05/18 06:37:53;;;;;;;10.87;3.27;;;36.70;40.80;;;;;;10364457;28;20214;-70
2022/05/18 06:42:54;;;;;;;11.07;3.13;;;38.00;39.90;;;;;;10365824;28;20722;-70
2022/05/18 06:47:55;;;;;;;5.50;3.03;;;38.90;37.50;;;;;;10364566;28;20221;-70
2022/05/18 06:52:55;;;;;;;4.57;2.50;;;38.10;36.70;;;;;;10352200;28;20680;-70
2022/05/18 06:57:56;;;;;;;9.40;3.27;;;38.20;37.30;;;;;;10355051;28;20245;-70
2022/05/18 07:02:57;;;;;;;5.70;2.87;;;39.30;35.50;;;;;;10364328;28;20299;-70
2022/05/18 07:07:57;;;;;;;4.97;2.90;;;38.00;35.90;;;;;;10362860;28;20221;-69
2022/05/18 07:12:58;;;;;;;5.57;2.50;;;38.50;36.60;;;;;;10369454;28;20229;-71
2022/05/18 07:17:59;;;;;;;4.47;2.37;;;39.60;34.80;;;;;;10368414;28;20225;-71
2022/05/18 07:22:59;;;;;;;4.67;2.53;;;39.20;34.20;;;;;;10358571;28;20703;-70
2022/05/18 07:28:01;;;;;;;14.10;3.63;;;39.20;34.60;;;;;;10356632;28;20217;-71
2022/05/18 07:33:01;;;;;;;7.03;3.20;;;39.70;34.10;;;;;;10369294;28;20216;-70
2022/05/18 07:38:02;;;;;;;4.67;2.80;;;38.00;36.70;;;;;;10343767;28;20227;-70
2022/05/18 07:43:04;;;;;;;6.20;3.07;;;38.00;36.90;;;;;;10359522;28;20266;-69
2022/05/18 07:48:06;;;;;;;6.03;3.40;;;39.40;35.90;;;;;;10357735;28;20218;-70
2022/05/18 07:53:07;;;;;;;4.07;2.60;;;39.70;34.50;;;;;;10363002;28;20271;-70
2022/05/18 07:58:11;;;;;;;6.70;3.20;;;40.80;33.50;;;;;;10356422;28;20258;-69
2022/05/18 08:03:14;;;;;;;7.70;3.30;;;42.20;31.70;;;;;;10361342;28;20600;-69
2022/05/18 08:08:19;;;;;;;6.75;3.20;;;42.90;31.40;;;;;;10360632;28;20213;-69
2022/05/18 08:18:40;;;;;;;5.03;3.20;;;43.00;29.80;;;;;;10364134;28;20233;-71
2022/05/18 08:23:41;;;;;;;5.45;3.40;;;43.30;29.60;;;;;;10357197;28;20762;-68
2022/05/18 08:28:43;;;;;;;7.57;3.28;;;42.90;29.80;;;;;;10361818;28;20214;-67
2022/05/18 08:33:44;;;;;;;6.75;3.10;;;43.10;28.90;;;;;;10347755;28;20708;-68
2022/05/18 08:38:46;;;;;;;8.30;3.30;;;41.70;30.00;;;;;;10363151;28;20688;-68
2022/05/18 08:43:54;;;;;;;6.67;3.33;;;41.00;31.30;;;;;;10364446;28;20787;-69
2022/05/18 08:49:34;;;;;;;6.65;2.92;;;42.30;30.10;;;;;;10361386;28;20676;-68
2022/05/18 08:54:48;;;;;;;4.70;3.05;;;42.90;29.70;;;;;;10351160;28;20225;-68
2022/05/18 08:59:55;;;;;;;3.17;2.72;;;44.20;28.10;;;;;;10354605;28;20248;-69
2022/05/18 09:05:03;;;;;;;3.25;2.42;;;44.60;27.20;;;;;;10366592;28;20217;-69
2022/05/18 09:10:13;;;;;;;4.95;2.88;;;45.40;26.90;;;;;;10341239;28;20269;-70
2022/05/18 09:15:36;;;;;;;3.97;2.55;;;45.00;26.40;;;;;;10365983;28;20197;-70
2022/05/18 09:21:07;;;;;;;2.80;2.60;;;42.30;28.40;;;;;;10324274;28;20716;-69
2022/05/18 09:26:44;;;;;;;3.70;2.33;;;41.30;30.00;;;;;;10344046;28;20237;-71
2022/05/18 09:32:16;;;;;;;3.17;2.33;;;41.60;29.70;;;;;;10344905;28;20244;-70
2022/05/18 09:37:34;;;;;;;5.63;2.35;;;43.80;27.80;;;;;;10351538;28;20418;-69
2022/05/18 09:42:40;;;;;;;3.87;2.67;;;44.60;26.60;;;;;;10369311;28;20289;-69
2022/05/18 09:47:56;;;;;;;3.73;2.60;;;42.50;28.20;;;;;;10354350;28;20222;-70
2022/05/18 09:52:59;;;;;;;3.60;2.57;;;41.90;29.20;;;;;;10363854;28;20233;-70
2022/05/18 09:58:05;;;;;;;4.43;2.30;;;43.10;28.00;;;;;;10369576;28;20257;-71
2022/05/18 10:09:12;;;;;;;5.18;2.25;;;44.20;26.90;;;;;;10327412;28;20221;-69
2022/05/18 10:14:33;;;;;;;3.83;2.33;;;47.00;24.90;;;;;;10368718;28;20220;-70
2022/05/18 10:19:49;;;;;;;3.13;2.20;;;47.40;23.70;;;;;;10367145;28;20221;-70
2022/05/18 10:25:05;;;;;;;4.25;2.38;;;46.70;23.50;;;;;;10372239;28;20232;-70
2022/05/18 10:30:17;;;;;;;3.53;2.13;;;44.40;24.90;;;;;;10363906;28;20230;-69
2022/05/18 10:35:54;;;;;;;4.80;2.20;;;42.50;27.10;;;;;;10352094;28;20193;-69
2022/05/18 10:41:03;;;;;;;5.60;2.10;;;42.30;27.00;;;;;;10288562;28;20236;-71
2022/05/18 10:46:12;;;;;;;3.45;2.20;;;44.00;27.00;;;;;;10368143;28;20228;-68
2022/05/18 10:51:14;;;;;;;2.95;2.30;;;45.20;24.90;;;;;;10364195;28;20231;-70
2022/05/18 10:56:28;;;;;;;216.30;15.23;;;46.00;24.30;;;;;;10364412;28;20209;-69
2022/05/18 11:01:46;;;;;;;3.67;2.17;;;46.40;24.80;;;;;;10360424;28;20252;-69
2022/05/18 11:06:46;;;;;;;6.07;2.38;;;45.80;24.80;;;;;;10367901;28;20587;-69
2022/05/18 11:12:08;;;;;;;4.30;2.20;;;45.80;24.30;;;;;;10367011;28;20221;-68
2022/05/18 11:17:15;;;;;;;3.10;1.70;;;45.80;24.90;;;;;;10369200;28;20755;-70
2022/05/18 11:22:30;;;;;;;4.25;2.10;;;47.10;23.80;;;;;;10353111;28;20230;-70
2022/05/18 11:27:45;;;;;;;2.20;1.77;;;44.20;25.30;;;;;;10360478;28;20208;-70
2022/05/18 11:33:01;;;;;;;3.00;1.57;;;42.80;25.60;;;;;;10364114;28;20210;-68
2022/05/18 11:38:18;;;;;;;2.63;2.10;;;40.20;26.90;;;;;;10362650;28;20217;-69
2022/05/18 11:43:33;;;;;;;4.40;2.37;;;37.20;31.10;;;;;;10367185;28;20220;-69
2022/05/18 11:48:45;;;;;;;2.43;2.17;;;34.50;35.10;;;;;;10365571;28;20209;-69
2022/05/18 11:54:11;;;;;;;9.57;2.17;;;33.20;37.00;;;;;;10366223;28;20743;-68
2022/05/18 12:04:34;;;;;;;5.47;2.03;;;32.30;38.60;;;;;;10361330;28;20651;-68
2022/05/18 12:09:55;;;;;;;2.40;1.87;;;32.30;38.50;;;;;;10361141;28;20249;-68
2022/05/18 12:15:19;;;;;;;2.30;1.87;;;31.60;39.10;;;;;;10351299;28;20696;-69
2022/05/18 12:20:24;;;;;;;2.83;1.67;;;31.20;39.80;;;;;;10361187;28;20338;-69
2022/05/18 12:25:27;;;;;;;2.43;1.60;;;30.70;40.30;;;;;;10364322;28;20713;-69
2022/05/18 12:30:31;;;;;;;2.07;1.67;;;30.80;39.20;;;;;;10360770;28;20325;-68
2022/05/18 12:35:34;;;;;;;3.87;1.70;;;31.10;39.50;;;;;;10365394;28;20221;-71
2022/05/18 12:41:00;;;;;;;2.33;1.67;;;31.40;39.40;;;;;;10368909;28;20657;-68
2022/05/18 12:46:08;;;;;;;4.97;2.37;;;31.60;39.70;;;;;;10360047;28;20237;-69
2022/05/18 12:51:27;;;;;;;6.57;1.90;;;31.60;39.70;;;;;;10356488;28;20766;-69
2022/05/18 12:56:37;;;;;;;3.67;2.20;;;31.40;39.30;;;;;;10344164;28;20869;-68
2022/05/18 13:01:40;;;;;;;3.10;1.80;;;31.30;39.80;;;;;;10339640;28;20270;-69
2022/05/18 13:06:53;;;;;;;3.87;1.90;;;31.40;40.00;;;;;;10354667;28;20209;-68
2022/05/18 13:12:04;;;;;;;4.27;2.13;;;31.50;39.50;;;;;;10351008;28;20235;-69
2022/05/18 13:17:13;;;;;;;7.73;2.33;;;31.60;39.20;;;;;;10356757;28;20213;-70
2022/05/18 13:22:17;;;;;;;3.53;1.97;;;31.30;40.40;;;;;;10356985;28;20312;-69
2022/05/18 13:27:55;;;;;;;3.00;1.90;;;30.80;41.70;;;;;;10358393;28;20220;-68
2022/05/18 13:32:57;;;;;;;3.43;1.80;;;30.80;41.10;;;;;;10348118;28;20218;-69
2022/05/18 13:38:04;;;;;;;4.03;2.13;;;31.10;40.50;;;;;;10347144;28;20225;-69
2022/05/18 13:43:13;;;;;;;2.53;1.90;;;31.30;40.60;;;;;;10356905;28;20256;-69
2022/05/18 13:48:15;;;;;;;3.27;1.80;;;31.30;39.20;;;;;;10363330;28;20224;-68
2022/05/18 13:53:30;;;;;;;4.27;1.70;;;31.00;39.90;;;;;;10363513;28;20275;-68
2022/05/18 13:58:39;;;;;;;3.93;1.80;;;30.90;40.20;;;;;;10345759;28;20229;-69
2022/05/18 14:03:45;;;;;;;13.83;2.10;;;31.10;39.90;;;;;;10357866;28;20229;-69
2022/05/18 14:08:49;;;;;;;3.87;1.87;;;31.10;40.10;;;;;;10361860;28;20600;-69
2022/05/18 14:13:53;;;;;;;5.97;2.07;;;31.00;40.40;;;;;;10357536;28;20217;-69
2022/05/18 14:18:56;;;;;;;5.03;1.73;;;30.70;40.40;;;;;;10354690;28;20213;-68
2022/05/18 14:24:07;;;;;;;2.07;1.20;;;30.70;41.50;;;;;;10361774;28;20819;-70
2022/05/18 14:29:11;;;;;;;2.43;1.20;;;30.60;39.00;;;;;;10369890;28;20217;-71
2022/05/18 14:34:14;;;;;;;4.90;1.63;;;30.80;39.10;;;;;;10363839;28;20275;-70
2022/05/18 14:39:17;;;;;;;2.10;1.37;;;30.60;39.20;;;;;;10367489;28;20217;-68
2022/05/18 14:44:27;;;;;;;3.47;1.47;;;30.70;39.40;;;;;;10366415;28;20253;-69
2022/05/18 14:49:36;;;;;;;2.67;1.90;;;30.90;39.50;;;;;;10357629;28;20212;-70
2022/05/18 14:54:44;;;;;;;3.07;1.40;;;30.50;40.10;;;;;;10351963;28;20222;-70
2022/05/18 14:59:49;;;;;;;3.17;1.87;;;30.20;40.10;;;;;;10362378;28;20246;-68
2022/05/18 15:05:00;;;;;;;2.73;1.27;;;30.30;40.80;;;;;;10361492;28;20229;-69
2022/05/18 15:10:17;;;;;;;1.80;1.63;;;30.30;41.20;;;;;;10364647;28;20233;-68
2022/05/18 15:15:17;;;;;;;4.90;1.87;;;30.20;41.20;;;;;;10363647;28;20216;-69
2022/05/18 15:20:56;;;;;;;3.47;1.47;;;30.00;41.40;;;;;;10368000;28;20192;-69
2022/05/18 15:26:16;;;;;;;1.97;1.50;;;29.60;40.90;;;;;;10348832;28;20226;-68
2022/05/18 15:31:25;;;;;;;4.00;1.80;;;29.70;42.10;;;;;;10365517;28;20271;-68
2022/05/18 15:36:27;;;;;;;2.13;1.57;;;29.50;42.10;;;;;;10360463;28;20638;-68
2022/05/18 15:41:30;;;;;;;2.50;1.50;;;29.50;41.50;;;;;;10363689;28;20707;-67
2022/05/18 15:46:38;;;;;;;3.40;1.50;;;29.60;41.30;;;;;;10362683;28;20217;-68
2022/05/18 15:51:38;;;;;;;4.43;2.10;;;29.50;41.60;;;;;;10363701;28;20220;-68
2022/05/18 15:56:40;;;;;;;3.17;1.57;;;29.50;42.00;;;;;;10362150;28;20228;-69
2022/05/18 16:01:40;;;;;;;3.20;1.50;;;29.60;41.90;;;;;;10359217;28;20925;-69
2022/05/18 16:06:42;;;;;;;3.03;1.60;;;29.40;42.50;;;;;;10366268;28;20221;-69
2022/05/18 16:11:43;;;;;;;2.30;1.53;;;29.40;43.10;;;;;;10357407;28;20229;-68
2022/05/18 16:16:43;;;;;;;3.40;1.70;;;29.20;43.30;;;;;;10360189;28;20227;-68
2022/05/18 16:21:44;;;;;;;4.90;1.83;;;29.10;43.20;;;;;;10367122;28;20728;-69
2022/05/18 16:26:45;;;;;;;2.33;1.50;;;29.00;43.10;;;;;;10364463;28;20304;-69
2022/05/18 16:31:45;;;;;;;4.33;1.60;;;29.00;43.50;;;;;;10347108;28;20224;-69
2022/05/18 16:36:46;;;;;;;5.10;2.10;;;28.90;44.30;;;;;;10364336;28;20621;-68
2022/05/18 16:41:50;;;;;;;5.60;2.60;;;28.90;44.70;;;;;;10347269;28;20217;-69
2022/05/18 16:46:54;;;;;;;4.50;1.90;;;28.80;45.40;;;;;;10360674;28;20233;-69
2022/05/18 16:51:57;;;;;;;5.37;2.00;;;28.70;46.10;;;;;;10365220;28;20225;-69
2022/05/18 16:57:00;;;;;;;4.43;2.00;;;28.50;46.30;;;;;;10361957;28;20320;-69
2022/05/18 17:02:01;;;;;;;2.90;2.10;;;28.30;46.60;;;;;;10362491;28;20257;-69
2022/05/18 17:07:02;;;;;;;4.60;2.30;;;28.20;48.20;;;;;;10363094;28;20283;-69
2022/05/18 17:12:03;;;;;;;2.93;1.83;;;28.10;48.10;;;;;;10361428;28;20272;-69
2022/05/18 17:17:12;;;;;;;6.20;2.37;;;28.00;48.20;;;;;;10363517;28;20221;-69
2022/05/18 17:22:12;;;;;;;3.53;2.10;;;28.00;48.20;;;;;;10363963;28;20665;-69
2022/05/18 17:27:15;;;;;;;4.70;2.13;;;28.00;48.20;;;;;;10360570;28;20213;-69
2022/05/18 17:32:18;;;;;;;4.53;1.93;;;27.90;48.30;;;;;;10365706;28;20228;-69
2022/05/18 17:37:22;;;;;;;2.90;2.10;;;27.80;48.50;;;;;;10363703;28;20221;-69
2022/05/18 17:42:22;;;;;;;4.37;2.30;;;27.70;48.90;;;;;;10354920;28;20232;-69
2022/05/18 17:47:25;;;;;;;6.30;2.33;;;27.60;49.90;;;;;;10361247;28;20351;-68
2022/05/18 17:52:28;;;;;;;4.57;2.40;;;27.50;51.10;;;;;;10360699;28;20225;-70
2022/05/18 17:57:29;;;;;;;4.67;2.20;;;27.40;51.00;;;;;;10362046;28;20275;-69
2022/05/18 18:02:34;;;;;;;4.87;2.60;;;27.30;51.30;;;;;;10366315;28;20699;-69
2022/05/18 18:07:36;;;;;;;4.77;2.33;;;27.20;51.50;;;;;;10371879;28;20232;-69
2022/05/18 18:12:36;;;;;;;5.13;2.20;;;27.10;51.90;;;;;;10368597;28;20263;-69
2022/05/18 18:17:38;;;;;;;4.00;2.63;;;27.00;52.00;;;;;;10368692;28;20335;-70
2022/05/18 18:22:45;;;;;;;5.77;2.40;;;26.90;52.30;;;;;;10370023;28;20262;-71
2022/05/18 18:27:45;;;;;;;3.53;2.50;;;26.70;52.70;;;;;;10370525;28;20297;-71
2022/05/18 18:32:46;;;;;;;5.47;2.73;;;26.60;53.10;;;;;;10368580;28;20312;-70
2022/05/18 18:37:49;;;;;;;5.77;2.60;;;26.50;53.70;;;;;;10369772;28;20306;-70
2022/05/18 18:42:49;;;;;;;6.30;2.23;;;26.40;54.30;;;;;;10353704;28;20236;-70
2022/05/18 18:47:53;;;;;;;2.40;2.20;;;26.30;54.90;;;;;;10372502;28;20698;-70
2022/05/18 18:58:14;;;;;;;5.13;2.87;;;26.00;55.90;;;;;;10370955;28;20690;-72
2022/05/18 19:03:14;;;;;;;5.37;2.30;;;25.90;56.40;;;;;;10367322;28;20220;-70
2022/05/18 19:08:16;;;;;;;4.73;2.80;;;25.80;56.90;;;;;;10352892;28;20213;-72
2022/05/18 19:13:17;;;;;;;5.00;2.50;;;25.60;57.30;;;;;;10339514;28;20217;-68
2022/05/18 19:18:18;;;;;;;4.67;2.50;;;25.50;57.70;;;;;;10350167;28;20815;-72
2022/05/18 19:23:30;;;;;;;4.43;2.90;;;25.40;57.90;;;;;;10354462;28;20229;-69
2022/05/18 19:28:35;;;;;;;5.80;2.30;;;25.20;58.10;;;;;;10361965;28;20397;-70
2022/05/18 19:33:36;;;;;;;4.97;3.00;;;25.10;58.40;;;;;;10369890;28;20226;-70
2022/05/18 19:38:36;;;;;;;6.80;2.87;;;25.00;58.80;;;;;;10367238;28;20692;-69
2022/05/18 19:43:40;;;;;;;5.43;3.03;;;24.80;59.20;;;;;;10349215;28;20316;-68
2022/05/18 19:48:41;;;;;;;5.47;2.93;;;24.70;59.60;;;;;;10350231;28;20233;-68
2022/05/18 19:53:42;;;;;;;6.77;2.90;;;24.60;60.00;;;;;;10356713;28;20233;-69
2022/05/18 19:58:42;;;;;;;4.00;2.50;;;24.50;60.40;;;;;;10354893;28;20232;-70
2022/05/18 20:03:43;;;;;;;6.53;3.00;;;24.40;60.50;;;;;;10370139;28;20595;-69
2022/05/18 20:08:44;;;;;;;4.10;2.67;;;24.30;60.80;;;;;;10332470;28;20230;-70
2022/05/18 20:13:45;;;;;;;4.33;2.97;;;24.30;61.30;;;;;;10358026;28;20598;-70
2022/05/18 20:18:46;;;;;;;4.70;3.17;;;24.10;61.60;;;;;;10344729;28;20224;-70
2022/05/18 20:23:47;;;;;;;6.10;2.87;;;24.00;62.20;;;;;;10357757;28;20724;-69
2022/05/18 20:28:47;;;;;;;5.00;2.87;;;24.00;62.50;;;;;;10350561;28;20224;-69
2022/05/18 20:33:48;;;;;;;4.57;2.50;;;23.90;62.90;;;;;;10357584;28;20219;-70
2022/05/18 20:38:49;;;;;;;6.23;2.80;;;23.80;63.50;;;;;;10336471;28;20213;-70
2022/05/18 20:43:50;;;;;;;4.07;2.77;;;23.70;63.90;;;;;;10353087;28;20221;-70
2022/05/18 20:48:56;;;;;;;4.97;2.83;;;23.60;64.30;;;;;;10349151;28;20223;-70
2022/05/18 20:53:58;;;;;;;7.07;3.10;;;23.50;64.50;;;;;;10361339;28;20284;-69
2022/05/18 20:59:03;;;;;;;4.80;2.70;;;23.50;64.80;;;;;;10353558;28;20724;-69
2022/05/18 21:04:04;;;;;;;5.70;2.97;;;23.40;64.90;;;;;;10352324;28;20224;-71
2022/05/18 21:09:05;;;;;;;5.17;3.10;;;23.30;64.90;;;;;;10353084;28;20239;-70
2022/05/18 21:14:09;;;;;;;4.47;2.87;;;23.30;64.80;;;;;;10353604;28;20372;-69
2022/05/18 21:19:10;;;;;;;4.33;2.90;;;23.30;65.60;;;;;;10352269;28;20714;-70
2022/05/18 21:24:11;;;;;;;4.40;2.87;;;23.20;65.20;;;;;;10359654;28;20310;-69
2022/05/18 21:29:20;;;;;;;4.03;2.47;;;23.10;65.70;;;;;;10327732;28;20213;-71
2022/05/18 21:34:20;;;;;;;7.80;2.97;;;23.00;65.80;;;;;;10355498;28;20311;-70
2022/05/18 21:39:21;;;;;;;5.77;3.00;;;23.00;66.00;;;;;;10328921;28;20321;-70
2022/05/18 21:44:27;;;;;;;6.10;2.70;;;22.90;66.10;;;;;;10343767;28;20225;-70
2022/05/18 21:49:30;;;;;;;4.83;3.00;;;22.90;66.20;;;;;;10344664;28;20692;-69
2022/05/18 21:54:31;;;;;;;6.37;2.60;;;22.80;66.00;;;;;;10351694;28;20246;-70
2022/05/18 21:59:35;;;;;;;4.37;2.63;;;22.80;66.10;;;;;;10351033;28;20845;-69
2022/05/18 22:04:37;;;;;;;6.47;2.60;;;22.80;66.40;;;;;;10354229;28;20248;-69
2022/05/18 22:09:39;;;;;;;3.57;2.53;;;22.70;66.70;;;;;;10343360;28;20270;-69
2022/05/18 22:14:40;;;;;;;5.27;2.43;;;22.60;67.00;;;;;;10359672;28;20222;-69
2022/05/18 22:19:40;;;;;;;2.63;2.30;;;22.50;67.10;;;;;;10346834;28;20241;-69
2022/05/18 22:24:42;;;;;;;3.23;2.33;;;22.40;67.60;;;;;;10355180;28;20701;-69
2022/05/18 22:29:44;;;;;;;3.50;2.57;;;22.30;68.80;;;;;;10333897;28;20249;-70
2022/05/18 22:34:47;;;;;;;3.47;2.57;;;22.10;69.90;;;;;;10354587;28;20222;-70
2022/05/18 22:39:48;;;;;;;3.93;2.67;;;21.90;71.20;;;;;;10351056;28;20218;-72
2022/05/18 22:44:49;;;;;;;4.03;2.40;;;21.70;70.90;;;;;;10348436;28;20750;-70
2022/05/18 22:49:50;;;;;;;5.30;2.37;;;21.70;70.50;;;;;;10344886;28;20209;-70
2022/05/18 22:54:51;;;;;;;3.43;2.53;;;21.80;69.50;;;;;;10361682;28;20226;-70
2022/05/18 22:59:51;;;;;;;3.63;2.30;;;22.00;68.70;;;;;;10357264;28;20651;-70
2022/05/18 23:04:54;;;;;;;2.97;2.00;;;22.10;68.10;;;;;;10357292;28;20313;-70
2022/05/18 23:09:55;;;;;;;3.53;2.30;;;22.10;67.80;;;;;;10353375;28;20913;-69
2022/05/18 23:14:59;;;;;;;4.87;2.50;;;22.20;67.70;;;;;;10363119;28;20230;-70
2022/05/18 23:20:01;;;;;;;3.70;2.30;;;22.10;67.10;;;;;;10362139;28;20251;-70
2022/05/18 23:25:02;;;;;;;5.73;2.50;;;22.00;67.90;;;;;;10359263;28;20234;-71
2022/05/18 23:30:03;;;;;;;4.20;2.80;;;21.90;68.80;;;;;;10344947;28;20308;-70
2022/05/18 23:35:04;;;;;;;3.60;2.60;;;21.70;71.40;;;;;;10366584;28;20225;-70
2022/05/18 23:40:06;;;;;;;4.33;2.30;;;21.60;71.70;;;;;;10355456;28;20221;-69
2022/05/18 23:45:07;;;;;;;9.57;2.60;;;21.40;72.60;;;;;;10337591;28;20221;-71
2022/05/18 23:51:29;;;;;;;3.17;2.40;;;21.30;73.70;;;;;;10361231;28;20181;-70
2022/05/18 23:55:31;;;;;;;3.13;2.43;;;21.20;74.00;;;;;;10351482;28;20237;-70
